createdAt,value
2023-04-30T00:00:56.785Z,74.95
2023-04-30T00:03:31.238Z,76.08
2023-04-30T00:05:57.873Z,75.94
2023-04-30T00:08:24.190Z,76.37
2023-04-30T00:10:51.113Z,75.46
2023-04-30T00:13:18.231Z,76.07
2023-04-30T00:15:44.623Z,77.30
2023-04-30T00:18:11.255Z,78.17
2023-04-30T00:24:32.769Z,79.14
2023-04-30T00:26:59.309Z,79.65
2023-04-30T00:29:25.863Z,80.35
2023-04-30T00:31:52.271Z,80.63
2023-04-30T00:34:18.705Z,80.00
2023-04-30T00:36:44.989Z,80.22
2023-04-30T00:39:11.326Z,80.09
2023-04-30T00:41:39.530Z,80.29
2023-04-30T00:44:05.937Z,79.74
2023-04-30T00:46:32.483Z,80.07
2023-04-30T00:49:01.644Z,80.16
2023-04-30T00:51:28.774Z,80.22
2023-04-30T00:53:55.720Z,80.28
2023-04-30T00:56:22.531Z,80.19
2023-04-30T00:58:50.730Z,80.01
2023-04-30T01:01:17.439Z,79.93
2023-04-30T01:03:44.113Z,80.08
2023-04-30T01:06:10.449Z,80.10
2023-04-30T01:08:36.822Z,80.61
2023-04-30T01:11:22.912Z,81.04
2023-04-30T01:14:07.913Z,81.75
2023-04-30T01:16:49.288Z,80.94
2023-04-30T01:19:44.517Z,80.85
2023-04-30T01:22:36.532Z,81.01
2023-04-30T01:25:25.976Z,80.98
2023-04-30T01:28:09.113Z,81.04
2023-04-30T01:30:36.873Z,81.06
2023-04-30T01:33:03.406Z,80.97
2023-04-30T01:36:08.198Z,81.18
2023-04-30T01:39:03.447Z,81.81
2023-04-30T01:41:56.695Z,81.98
2023-04-30T01:44:37.060Z,81.90
2023-04-30T01:47:09.063Z,82.39
2023-04-30T01:49:41.386Z,82.90
2023-04-30T01:52:40.482Z,83.11
2023-04-30T01:56:05.088Z,84.42
2023-04-30T01:58:31.985Z,86.39
2023-04-30T02:00:58.293Z,87.46
2023-04-30T02:03:24.814Z,88.38
2023-04-30T02:05:52.569Z,88.92
2023-04-30T02:08:18.926Z,89.69
2023-04-30T02:10:45.265Z,89.55
2023-04-30T02:13:11.663Z,89.46
2023-04-30T02:15:38.045Z,89.53
2023-04-30T02:18:04.397Z,89.86
2023-04-30T02:20:30.730Z,90.10
2023-04-30T02:23:00.684Z,90.26
2023-04-30T02:25:27.185Z,90.73
2023-04-30T02:27:53.584Z,90.97
2023-04-30T02:30:20.370Z,91.10
2023-04-30T02:32:47.382Z,91.18
2023-04-30T02:35:13.740Z,91.20
2023-04-30T02:37:40.386Z,91.74
2023-04-30T02:40:07.397Z,92.12
2023-04-30T02:42:33.787Z,91.84
2023-04-30T02:45:00.463Z,91.48
2023-04-30T02:47:27.015Z,91.47
2023-04-30T02:50:23.055Z,91.66
2023-04-30T02:52:49.336Z,91.39
2023-04-30T02:55:16.216Z,91.18
2023-04-30T02:57:42.542Z,90.71
2023-04-30T03:00:09.315Z,90.52
2023-04-30T03:02:35.886Z,90.29
2023-04-30T03:05:03.446Z,89.23
2023-04-30T03:07:30.199Z,88.76
2023-04-30T03:09:56.587Z,88.87
2023-04-30T03:12:23.146Z,88.62
2023-04-30T03:14:49.641Z,87.92
2023-04-30T03:17:16.002Z,86.97
2023-04-30T03:19:42.468Z,86.64
2023-04-30T03:23:11.976Z,86.46
2023-04-30T03:25:38.353Z,86.99
2023-04-30T03:28:04.664Z,87.10
2023-04-30T03:30:31.085Z,87.40
2023-04-30T03:32:57.554Z,87.61
2023-04-30T03:39:37.272Z,88.29
2023-04-30T03:42:03.672Z,87.86
2023-04-30T03:44:30.040Z,87.56
2023-04-30T03:46:56.510Z,87.60
2023-04-30T03:49:22.850Z,87.59
2023-04-30T03:51:49.155Z,87.24
2023-04-30T03:54:15.440Z,87.00
2023-04-30T03:56:41.694Z,86.42
2023-04-30T03:59:08.175Z,84.42
2023-04-30T04:01:34.842Z,83.00
2023-04-30T04:04:01.507Z,81.96
2023-04-30T04:06:28.079Z,81.45
2023-04-30T04:08:54.536Z,81.00
2023-04-30T04:11:20.978Z,80.11
2023-04-30T04:13:47.452Z,79.48
2023-04-30T04:16:13.921Z,78.86
2023-04-30T04:18:40.223Z,77.82
2023-04-30T04:21:07.304Z,76.07
2023-04-30T04:23:33.639Z,75.27
2023-04-30T04:25:59.931Z,74.49
2023-04-30T04:28:26.605Z,74.39
2023-04-30T04:30:53.174Z,73.68
2023-04-30T04:33:19.438Z,72.71
2023-04-30T04:35:45.840Z,72.14
2023-04-30T04:38:12.587Z,71.99
2023-04-30T04:40:39.468Z,71.32
2023-04-30T04:43:05.995Z,71.50
2023-04-30T04:45:32.998Z,71.33
2023-04-30T04:47:59.592Z,71.58
2023-04-30T04:50:25.957Z,71.09
2023-04-30T04:52:52.359Z,71.09
2023-04-30T04:55:18.646Z,71.72
2023-04-30T04:57:45.170Z,72.09
2023-04-30T05:00:12.562Z,72.53
2023-04-30T05:02:38.947Z,72.52
2023-04-30T05:05:10.597Z,72.50
2023-04-30T05:07:36.876Z,72.16
2023-04-30T05:10:03.451Z,71.46
2023-04-30T05:12:29.831Z,71.39
2023-04-30T05:14:56.218Z,71.12
2023-04-30T05:17:22.695Z,70.26
2023-04-30T05:19:50.072Z,69.79
2023-04-30T05:22:16.870Z,69.82
2023-04-30T05:24:43.368Z,69.84
2023-04-30T05:27:09.754Z,70.67
2023-04-30T05:29:36.498Z,70.43
2023-04-30T05:32:03.090Z,70.50
2023-04-30T05:34:29.621Z,69.90
2023-04-30T05:36:55.998Z,69.80
2023-04-30T05:39:24.001Z,69.69
2023-04-30T05:41:51.627Z,69.03
2023-04-30T05:44:19.510Z,70.04
2023-04-30T05:46:45.931Z,70.14
2023-04-30T05:49:12.558Z,70.01
2023-04-30T05:51:39.025Z,70.06
2023-04-30T05:54:05.513Z,69.47
2023-04-30T05:56:31.889Z,69.30
2023-04-30T05:58:58.342Z,68.50
2023-04-30T06:01:24.879Z,68.22
2023-04-30T06:03:51.717Z,67.51
2023-04-30T06:06:18.064Z,66.83
2023-04-30T06:08:44.889Z,66.21
2023-04-30T06:11:14.831Z,66.41
2023-04-30T06:13:41.190Z,65.93
2023-04-30T06:16:07.811Z,64.66
2023-04-30T06:18:34.162Z,65.18
2023-04-30T06:21:00.511Z,64.48
2023-04-30T06:23:52.387Z,63.46
2023-04-30T06:26:19.497Z,60.84
2023-04-30T06:28:46.463Z,56.29
2023-04-30T06:31:13.724Z,54.60
2023-04-30T06:33:40.088Z,52.19
2023-04-30T06:36:06.506Z,51.33
2023-04-30T06:38:32.943Z,49.55
2023-04-30T06:40:59.351Z,49.93
2023-04-30T06:43:25.803Z,47.26
2023-04-30T06:46:17.185Z,46.21
2023-04-30T06:48:43.533Z,45.38
2023-04-30T06:51:10.908Z,43.47
2023-04-30T06:53:37.635Z,42.34
2023-04-30T06:56:04.184Z,41.58
2023-04-30T06:58:30.472Z,41.13
2023-04-30T07:00:57.589Z,41.18
2023-04-30T07:03:23.982Z,40.89
2023-04-30T07:05:51.087Z,40.21
2023-04-30T07:08:17.478Z,39.45
2023-04-30T07:10:43.749Z,38.53
2023-04-30T07:13:10.088Z,37.76
2023-04-30T07:15:37.455Z,37.12
2023-04-30T07:18:03.727Z,37.24
2023-04-30T07:20:30.133Z,37.91
2023-04-30T07:22:56.386Z,37.45
2023-04-30T07:25:22.715Z,38.34
2023-04-30T07:27:52.261Z,37.44
2023-04-30T07:30:18.600Z,39.35
2023-04-30T07:32:44.883Z,40.68
2023-04-30T07:35:11.262Z,41.94
2023-04-30T07:37:39.786Z,40.99
2023-04-30T07:40:15.058Z,40.61
2023-04-30T07:42:44.528Z,39.74
2023-04-30T07:45:12.712Z,39.21
2023-04-30T07:47:39.109Z,38.14
2023-04-30T07:50:05.964Z,38.09
2023-04-30T07:52:32.319Z,38.14
2023-04-30T07:54:58.635Z,35.86
2023-04-30T07:57:28.134Z,35.64
2023-04-30T07:59:55.364Z,36.18
2023-04-30T08:02:22.009Z,34.08
2023-04-30T08:04:48.795Z,33.39
2023-04-30T08:07:15.397Z,33.28
2023-04-30T08:09:41.793Z,32.73
2023-04-30T08:12:09.656Z,33.40
2023-04-30T08:14:35.914Z,33.62
2023-04-30T08:17:02.659Z,33.74
2023-04-30T08:19:29.107Z,32.96
2023-04-30T08:21:55.625Z,33.71
2023-04-30T08:24:21.914Z,34.52
2023-04-30T08:26:48.640Z,34.27
2023-04-30T08:29:14.931Z,32.89
2023-04-30T08:31:41.872Z,32.49
2023-04-30T08:34:08.185Z,32.24
2023-04-30T08:36:34.457Z,32.14
2023-04-30T08:39:01.458Z,31.44
2023-04-30T08:41:32.321Z,32.82
2023-04-30T08:44:01.020Z,33.66
2023-04-30T08:46:31.449Z,32.87
2023-04-30T08:48:58.064Z,31.26
2023-04-30T08:51:30.650Z,31.58
2023-04-30T08:53:57.252Z,31.84
2023-04-30T08:56:27.468Z,30.96
2023-04-30T08:58:53.811Z,31.45
2023-04-30T09:01:20.624Z,30.07
2023-04-30T09:03:47.049Z,30.15
2023-04-30T09:06:16.953Z,29.96
2023-04-30T09:08:48.863Z,29.00
2023-04-30T09:11:27.337Z,28.17
2023-04-30T09:13:59.151Z,27.98
2023-04-30T09:16:27.349Z,27.58
2023-04-30T09:18:54.071Z,27.88
2023-04-30T09:21:34.902Z,28.30
2023-04-30T09:24:05.319Z,27.28
2023-04-30T09:26:37.534Z,26.93
2023-04-30T09:29:08.224Z,25.67
2023-04-30T09:31:36.149Z,25.42
2023-04-30T09:34:03.684Z,26.63
2023-04-30T09:36:31.307Z,26.21
2023-04-30T09:39:16.824Z,26.25
2023-04-30T09:41:43.778Z,26.38
2023-04-30T09:44:27.918Z,27.08
2023-04-30T09:46:55.637Z,25.30
2023-04-30T09:49:22.015Z,25.98
2023-04-30T09:51:53.957Z,26.85
2023-04-30T09:54:22.882Z,25.54
2023-04-30T09:56:52.951Z,25.22
2023-04-30T09:59:22.297Z,25.60
2023-04-30T10:01:51.797Z,26.16
2023-04-30T10:04:20.202Z,25.80
2023-04-30T10:06:47.509Z,24.85
2023-04-30T10:09:15.383Z,23.23
2023-04-30T10:11:44.048Z,22.53
2023-04-30T10:14:12.285Z,22.14
2023-04-30T10:17:07.079Z,22.25
2023-04-30T10:20:05.959Z,22.36
2023-04-30T10:22:34.354Z,22.12
2023-04-30T10:25:01.649Z,20.92
2023-04-30T10:27:32.611Z,22.00
2023-04-30T10:29:59.411Z,22.19
2023-04-30T10:32:36.252Z,22.23
2023-04-30T10:35:20.127Z,21.16
2023-04-30T10:37:49.879Z,19.29
2023-04-30T10:40:18.487Z,19.10
2023-04-30T10:42:47.074Z,19.07
2023-04-30T10:45:38.826Z,19.38
2023-04-30T10:48:06.353Z,20.26
2023-04-30T10:50:38.888Z,19.88
2023-04-30T10:53:06.509Z,19.91
2023-04-30T10:55:33.103Z,18.84
2023-04-30T10:57:59.487Z,18.28
2023-04-30T11:00:28.326Z,18.97
2023-04-30T11:03:03.347Z,19.32
2023-04-30T11:05:36.782Z,19.04
2023-04-30T11:08:03.277Z,19.52
2023-04-30T11:10:34.091Z,19.76
2023-04-30T11:13:09.500Z,19.11
2023-04-30T11:15:41.496Z,19.33
2023-04-30T11:18:08.897Z,19.74
2023-04-30T11:20:41.321Z,18.60
2023-04-30T11:23:24.962Z,18.31
2023-04-30T11:25:54.656Z,18.02
2023-04-30T11:28:24.114Z,18.32
2023-04-30T11:30:58.358Z,18.76
2023-04-30T11:33:26.328Z,18.83
2023-04-30T11:35:55.168Z,18.22
2023-04-30T11:38:26.732Z,17.98
2023-04-30T11:40:56.316Z,18.20
2023-04-30T11:43:28.486Z,18.68
2023-04-30T11:46:07.585Z,18.84
2023-04-30T11:48:36.097Z,19.66
2023-04-30T11:51:24.394Z,19.48
2023-04-30T11:53:52.122Z,19.37
2023-04-30T11:56:21.005Z,19.20
2023-04-30T11:58:48.669Z,19.11
2023-04-30T12:01:15.851Z,19.58
2023-04-30T12:03:49.790Z,18.55
2023-04-30T12:06:25.019Z,18.40
2023-04-30T12:09:11.096Z,18.57
2023-04-30T12:11:38.152Z,19.28
2023-04-30T12:14:10.327Z,19.60
2023-04-30T12:16:45.280Z,18.66
2023-04-30T12:19:12.300Z,18.45
2023-04-30T12:21:40.646Z,19.05
2023-04-30T12:24:07.826Z,18.62
2023-04-30T12:26:39.373Z,18.36
2023-04-30T12:29:10.247Z,17.64
2023-04-30T12:31:38.092Z,17.70
2023-04-30T12:34:09.554Z,18.58
2023-04-30T12:36:41.764Z,17.89
2023-04-30T12:39:09.967Z,17.75
2023-04-30T12:41:41.612Z,18.40
2023-04-30T12:44:26.814Z,18.64
2023-04-30T12:47:00.249Z,18.87
2023-04-30T12:53:44.992Z,19.04
2023-04-30T12:56:16.950Z,18.32
2023-04-30T12:58:46.591Z,19.34
2023-04-30T13:01:15.386Z,19.94
2023-04-30T13:03:42.361Z,20.15
2023-04-30T13:06:09.751Z,20.04
2023-04-30T13:08:45.800Z,19.32
2023-04-30T13:11:16.584Z,18.48
2023-04-30T13:13:42.958Z,18.82
2023-04-30T13:16:09.362Z,18.48
2023-04-30T13:18:36.668Z,18.84
2023-04-30T13:21:03.420Z,19.19
2023-04-30T13:23:31.952Z,18.59
2023-04-30T13:26:00.510Z,17.98
2023-04-30T13:28:26.779Z,18.80
2023-04-30T13:30:53.163Z,19.05
2023-04-30T13:33:20.273Z,18.92
2023-04-30T13:35:47.245Z,18.97
2023-04-30T13:38:13.542Z,18.95
2023-04-30T13:40:40.518Z,18.87
2023-04-30T13:43:07.327Z,18.74
2023-04-30T13:45:33.693Z,18.61
2023-04-30T13:48:00.236Z,18.68
2023-04-30T13:50:26.706Z,18.72
2023-04-30T13:52:53.244Z,18.70
2023-04-30T13:55:19.570Z,19.21
2023-04-30T13:57:46.163Z,19.35
2023-04-30T14:00:13.354Z,19.64
2023-04-30T14:02:39.898Z,19.12
2023-04-30T14:06:22.262Z,18.98
2023-04-30T14:08:48.735Z,18.92
2023-04-30T14:11:16.383Z,18.77
2023-04-30T14:13:43.421Z,18.60
2023-04-30T14:16:09.861Z,19.17
2023-04-30T14:18:36.567Z,18.81
2023-04-30T14:21:03.005Z,19.06
2023-04-30T14:23:38.635Z,19.04
2023-04-30T14:29:06.065Z,19.47
2023-04-30T14:33:19.891Z,18.33
2023-04-30T14:35:47.804Z,18.43
2023-04-30T14:39:17.991Z,17.98
2023-04-30T14:41:45.780Z,17.80
2023-04-30T14:44:13.461Z,17.63
2023-04-30T14:46:41.359Z,17.69
2023-04-30T14:49:09.116Z,17.28
2023-04-30T14:51:36.829Z,16.88
2023-04-30T14:54:04.553Z,16.45
2023-04-30T14:56:32.616Z,16.19
2023-04-30T14:59:00.411Z,15.32
2023-04-30T15:01:30.411Z,15.21
2023-04-30T15:03:58.989Z,15.02
2023-04-30T15:06:27.037Z,15.01
2023-04-30T15:09:42.621Z,14.84
2023-04-30T15:12:42.610Z,14.21
2023-04-30T15:15:10.751Z,13.65
2023-04-30T15:17:38.776Z,13.91
2023-04-30T15:20:07.679Z,14.19
2023-04-30T15:22:35.502Z,14.00
2023-04-30T15:26:01.109Z,14.34
2023-04-30T15:28:29.031Z,14.00
2023-04-30T15:30:57.071Z,13.58
2023-04-30T15:33:29.062Z,13.26
2023-04-30T15:35:57.405Z,13.85
2023-04-30T15:38:25.108Z,13.69
2023-04-30T15:40:53.006Z,13.89
2023-04-30T15:43:21.551Z,13.95
2023-04-30T15:45:50.704Z,13.88
2023-04-30T15:48:18.486Z,13.91
2023-04-30T15:50:52.549Z,13.83
2023-04-30T15:53:20.204Z,13.77
2023-04-30T15:55:49.161Z,13.84
2023-04-30T15:58:17.040Z,13.87
2023-04-30T16:00:45.005Z,14.36
2023-04-30T16:03:12.905Z,14.32
2023-04-30T16:05:42.552Z,14.57
2023-04-30T16:08:15.257Z,14.55
2023-04-30T16:10:43.355Z,14.77
2023-04-30T16:13:10.996Z,15.25
2023-04-30T16:15:38.639Z,16.35
2023-04-30T16:18:06.822Z,18.78
2023-04-30T16:20:34.919Z,20.00
2023-04-30T16:23:04.861Z,21.76
2023-04-30T16:25:32.706Z,22.96
2023-04-30T16:28:00.473Z,24.34
2023-04-30T16:30:28.566Z,25.04
2023-04-30T16:32:57.023Z,25.39
2023-04-30T16:35:25.094Z,26.59
2023-04-30T16:37:54.982Z,26.93
2023-04-30T16:40:22.713Z,27.26
2023-04-30T16:42:50.286Z,27.94
2023-04-30T16:45:18.291Z,27.51
2023-04-30T16:47:46.169Z,28.69
2023-04-30T16:50:14.206Z,29.38
2023-04-30T16:52:42.007Z,29.57
2023-04-30T16:55:10.516Z,29.33
2023-04-30T16:57:38.142Z,29.63
2023-04-30T17:00:14.240Z,29.83
2023-04-30T17:02:45.416Z,29.76
2023-04-30T17:05:13.378Z,30.09
2023-04-30T17:07:43.325Z,30.77
2023-04-30T17:10:12.020Z,30.53
2023-04-30T17:12:40.164Z,30.50
2023-04-30T17:15:08.326Z,30.90
2023-04-30T17:17:36.090Z,31.69
2023-04-30T17:20:04.109Z,31.85
2023-04-30T17:22:57.230Z,32.54
2023-04-30T17:25:25.489Z,32.80
2023-04-30T17:27:53.176Z,33.20
2023-04-30T17:30:21.147Z,33.48
2023-04-30T17:32:48.902Z,32.98
2023-04-30T17:35:17.098Z,33.74
2023-04-30T17:38:58.012Z,34.64
2023-04-30T17:41:26.381Z,34.23
2023-04-30T17:43:54.090Z,34.75
2023-04-30T17:46:22.467Z,34.83
2023-04-30T17:48:50.170Z,34.92
2023-04-30T17:51:18.446Z,34.96
2023-04-30T17:53:46.298Z,35.14
2023-04-30T17:56:15.100Z,35.18
2023-04-30T17:58:42.940Z,35.52
2023-04-30T18:01:10.603Z,35.86
2023-04-30T18:03:38.419Z,36.00
2023-04-30T18:06:06.406Z,36.12
2023-04-30T18:08:34.113Z,36.50
2023-04-30T18:11:03.526Z,36.74
2023-04-30T18:13:31.658Z,37.30
2023-04-30T18:15:59.442Z,37.06
2023-04-30T18:18:27.170Z,36.97
2023-04-30T18:20:55.758Z,37.16
2023-04-30T18:23:23.410Z,37.57
2023-04-30T18:25:51.091Z,37.94
2023-04-30T18:28:18.896Z,37.79
2023-04-30T18:30:46.875Z,37.83
2023-04-30T18:33:14.789Z,38.48
2023-04-30T18:36:08.566Z,38.96
2023-04-30T18:38:38.780Z,39.31
2023-04-30T18:41:07.387Z,39.11
2023-04-30T18:43:37.563Z,39.41
2023-04-30T18:46:06.022Z,39.99
2023-04-30T18:48:34.208Z,39.95
2023-04-30T18:51:01.881Z,40.09
2023-04-30T18:53:29.586Z,40.18
2023-04-30T18:55:58.058Z,40.36
2023-04-30T18:58:25.772Z,40.63
2023-04-30T19:00:57.942Z,40.96
2023-04-30T19:03:25.998Z,40.82
2023-04-30T19:05:56.715Z,41.31
2023-04-30T19:08:24.476Z,41.64
2023-04-30T19:10:53.271Z,42.00
2023-04-30T19:13:21.517Z,41.98
2023-04-30T19:15:49.383Z,42.01
2023-04-30T19:18:20.262Z,42.68
2023-04-30T19:21:00.239Z,42.93
2023-04-30T19:23:32.547Z,43.28
2023-04-30T19:26:00.402Z,43.24
2023-04-30T19:28:28.180Z,43.39
2023-04-30T19:30:58.475Z,43.63
2023-04-30T19:33:26.322Z,44.19
2023-04-30T19:35:55.145Z,44.68
2023-04-30T19:38:23.776Z,44.85
2023-04-30T19:40:53.167Z,45.57
2023-04-30T19:43:22.651Z,45.65
2023-04-30T19:45:55.404Z,46.07
2023-04-30T19:48:24.621Z,46.23
2023-04-30T19:50:53.693Z,46.50
2023-04-30T19:53:22.840Z,46.80
2023-04-30T19:55:51.837Z,47.19
2023-04-30T19:58:20.267Z,47.97
2023-04-30T20:01:09.206Z,48.28
2023-04-30T20:03:37.149Z,49.03
2023-04-30T20:06:05.941Z,49.63
2023-04-30T20:08:33.712Z,50.16
2023-04-30T20:11:03.293Z,50.71
2023-04-30T20:13:31.620Z,50.91
2023-04-30T20:15:59.360Z,51.03
2023-04-30T20:18:27.155Z,51.45
2023-04-30T20:20:57.828Z,51.93
2023-04-30T20:23:25.490Z,51.88
2023-04-30T20:25:55.036Z,52.26
2023-04-30T20:28:23.426Z,52.22
2023-04-30T20:30:51.547Z,52.42
2023-04-30T20:33:19.429Z,52.96
2023-04-30T20:35:47.783Z,53.44
2023-04-30T20:38:19.534Z,54.07
2023-04-30T20:40:47.801Z,54.31
2023-04-30T20:43:16.366Z,54.48
2023-04-30T20:45:58.919Z,54.79
2023-04-30T20:48:27.082Z,55.17
2023-04-30T20:50:57.632Z,55.31
2023-04-30T20:53:25.354Z,55.38
2023-04-30T20:55:58.293Z,55.32
2023-04-30T20:58:27.524Z,55.90
2023-04-30T21:00:55.338Z,56.32
2023-04-30T21:03:23.406Z,56.55
2023-04-30T21:05:51.628Z,57.04
2023-04-30T21:08:19.286Z,57.23
2023-04-30T21:10:47.030Z,57.44
2023-04-30T21:13:15.008Z,57.96
2023-04-30T21:15:43.363Z,58.45
2023-04-30T21:18:11.298Z,58.78
2023-04-30T21:20:38.953Z,59.31
2023-04-30T21:23:06.566Z,59.61
2023-04-30T21:25:36.935Z,59.64
2023-04-30T21:28:04.571Z,59.55
2023-04-30T21:30:32.293Z,59.87
2023-04-30T21:33:00.108Z,60.43
2023-04-30T21:35:30.378Z,59.87
2023-04-30T21:37:58.095Z,58.79
2023-04-30T21:40:25.835Z,57.60
2023-04-30T21:42:53.437Z,58.11
2023-04-30T21:45:21.366Z,58.27
2023-04-30T21:47:49.125Z,58.42
2023-04-30T21:50:17.034Z,58.75
2023-04-30T21:52:44.736Z,58.98
2023-04-30T21:55:12.521Z,59.05
2023-04-30T21:57:40.174Z,58.68
2023-04-30T22:00:18.920Z,59.11
2023-04-30T22:02:48.851Z,59.05
2023-04-30T22:05:21.242Z,58.86
2023-04-30T22:07:49.078Z,59.07
2023-04-30T22:10:16.711Z,59.40
2023-04-30T22:12:47.384Z,59.10
2023-04-30T22:15:15.579Z,59.35
2023-04-30T22:17:43.366Z,60.03
2023-04-30T22:20:11.585Z,60.07
2023-04-30T22:22:39.503Z,60.29
2023-04-30T22:25:07.633Z,60.06
2023-04-30T22:27:35.341Z,60.23
2023-04-30T22:30:03.952Z,59.75
2023-04-30T22:32:32.278Z,60.26
2023-04-30T22:35:00.048Z,60.35
2023-04-30T22:37:27.677Z,60.41
2023-04-30T22:39:55.685Z,60.67
2023-04-30T22:42:23.685Z,61.14
2023-04-30T22:44:52.092Z,61.08
2023-04-30T22:47:19.794Z,61.38
2023-04-30T22:49:47.736Z,61.35
2023-04-30T22:52:15.570Z,61.64
2023-04-30T22:54:43.368Z,61.77
2023-04-30T22:57:11.175Z,62.04
2023-04-30T23:00:55.189Z,62.29
2023-04-30T23:03:22.903Z,62.88
2023-04-30T23:05:51.612Z,63.47
2023-04-30T23:08:19.526Z,63.89
2023-04-30T23:10:47.870Z,64.08
2023-04-30T23:13:17.367Z,64.19
2023-04-30T23:15:45.400Z,64.31
2023-04-30T23:18:13.218Z,64.63
2023-04-30T23:20:40.929Z,64.74
2023-04-30T23:23:08.529Z,64.93
2023-04-30T23:25:36.860Z,65.31
2023-04-30T23:28:05.042Z,65.15
2023-04-30T23:30:32.825Z,65.29
2023-04-30T23:33:00.903Z,65.38
2023-04-30T23:35:28.530Z,65.65
2023-04-30T23:37:56.271Z,65.74
2023-04-30T23:40:24.024Z,65.94
2023-04-30T23:42:51.644Z,65.93
2023-04-30T23:46:09.388Z,66.00
2023-04-30T23:48:37.445Z,66.34
2023-04-30T23:51:08.305Z,66.79
2023-04-30T23:53:36.149Z,66.57
2023-04-30T23:56:03.906Z,66.76
2023-04-30T23:58:31.650Z,67.12
